Time;durP1;ratioP1;P1;durP2;ratioP2;P2;SDS_P1;SDS_P2;PMS_P1;PMS_P2;Temp;Humidity;BMP_temperature;BMP_pressure;BME280_temperature;BME280_humidity;BME280_pressure;Samples;Min_cycle;Max_cycle;Signal;HPM_P1;HPM_P2
2021/01/23 00:01:57;;;;;;;14.13;9.02;;;;;;;3.87;73.82;92791.63;5012140;28;20402;-63
2021/01/23 00:04:22;;;;;;;16.35;9.93;;;;;;;3.86;72.93;92757.78;5030093;28;20510;-65
2021/01/23 00:06:48;;;;;;;13.73;9.82;;;;;;;3.77;73.63;92759.69;5011959;28;20033;-67
2021/01/23 00:09:13;;;;;;;11.65;9.23;;;;;;;3.69;74.37;92773.66;5014207;28;20032;-67
2021/01/23 00:11:38;;;;;;;15.70;10.40;;;;;;;3.65;73.55;92750.63;5029674;28;20037;-66
2021/01/23 00:14:04;;;;;;;14.32;10.40;;;;;;;3.96;74.15;92804.75;5029775;28;20396;-65
2021/01/23 00:16:29;;;;;;;10.85;9.73;;;;;;;3.71;74.63;92792.50;5011894;28;20037;-65
2021/01/23 00:18:54;;;;;;;14.63;11.40;;;;;;;3.73;75.41;92821.88;5029477;28;20116;-64
2021/01/23 00:21:19;;;;;;;12.80;10.23;;;;;;;3.49;75.72;92825.84;5013510;28;20399;-64
2021/01/23 00:23:45;;;;;;;11.93;10.70;;;;;;;3.71;75.58;92845.09;5029616;28;20064;-63
2021/01/23 00:26:10;;;;;;;13.57;9.80;;;;;;;3.62;74.76;92840.63;5029034;28;20477;-63
2021/01/23 00:28:35;;;;;;;13.23;11.13;;;;;;;3.76;75.63;92871.97;5029249;28;20045;-64
2021/01/23 00:31:01;;;;;;;13.05;11.65;;;;;;;4.10;73.99;92865.78;5011717;28;20438;-64
2021/01/23 00:33:26;;;;;;;13.82;12.40;;;;;;;3.69;75.11;92840.16;5028936;28;20033;-64
2021/01/23 00:35:52;;;;;;;14.05;11.15;;;;;;;3.55;76.49;92868.50;5031260;28;20439;-63
2021/01/23 00:38:17;;;;;;;14.70;12.20;;;;;;;3.61;76.32;92891.66;5029037;28;20055;-64
2021/01/23 00:40:42;;;;;;;15.15;12.88;;;;;;;3.48;76.58;92855.88;5011156;28;20121;-64
2021/01/23 00:43:08;;;;;;;13.57;12.25;;;;;;;3.67;76.68;92902.78;5028212;28;20164;-64
2021/01/23 00:45:33;;;;;;;15.68;13.93;;;;;;;3.92;76.28;92907.16;5010811;28;20255;-65
2021/01/23 00:48:05;;;;;;;16.60;13.32;;;;;;;3.43;77.01;92871.00;5030661;28;20076;-65
2021/01/23 00:50:31;;;;;;;17.50;14.60;;;;;;;4.07;76.24;92920.88;5029031;28;20037;-65
2021/01/23 00:52:56;;;;;;;18.98;14.18;;;;;;;3.86;76.68;92900.56;5011141;28;20115;-64
2021/01/23 00:55:22;;;;;;;18.00;14.32;;;;;;;4.12;76.79;92929.38;5028953;28;20041;-64
2021/01/23 00:57:48;;;;;;;15.90;13.88;;;;;;;3.87;78.10;92924.97;5028510;28;20511;-65
2021/01/23 01:00:14;;;;;;;15.52;13.90;;;;;;;4.16;77.11;92924.25;5030332;28;20032;-63
2021/01/23 01:02:39;;;;;;;18.92;14.55;;;;;;;3.92;78.38;92909.03;5028290;28;20128;-63
2021/01/23 01:05:05;;;;;;;17.30;15.52;;;;;;;3.82;79.70;92935.69;5028800;28;20171;-64
2021/01/23 01:07:30;;;;;;;20.88;16.17;;;;;;;3.89;80.23;92947.28;5028507;28;20045;-64
2021/01/23 01:09:56;;;;;;;19.48;15.20;;;;;;;3.39;81.79;92918.19;5028867;28;20068;-63
2021/01/23 01:12:21;;;;;;;19.40;17.23;;;;;;;3.84;80.80;92955.31;5030567;28;20025;-63
2021/01/23 01:14:46;;;;;;;16.42;13.23;;;;;;;3.52;82.43;92961.88;5028726;28;20033;-64
2021/01/23 01:17:13;;;;;;;23.00;15.85;;;;;;;3.72;82.75;92996.50;5028403;28;20045;-64
2021/01/23 01:19:38;;;;;;;18.52;14.80;;;;;;;3.48;82.89;92968.06;5028568;28;20037;-64
2021/01/23 01:22:03;;;;;;;17.20;15.02;;;;;;;3.74;83.58;92997.75;5027008;28;20159;-65
2021/01/23 01:24:29;;;;;;;19.85;17.65;;;;;;;3.70;83.55;92977.63;5028631;28;20080;-65
2021/01/23 01:26:54;;;;;;;21.63;16.10;;;;;;;3.83;83.41;93011.63;5030000;28;20033;-62
2021/01/23 01:29:19;;;;;;;21.40;18.17;;;;;;;3.91;82.44;92984.53;5028554;28;20039;-64
2021/01/23 01:31:45;;;;;;;19.95;17.25;;;;;;;4.19;82.41;93023.59;5028226;28;20049;-64
2021/01/23 01:34:10;;;;;;;18.23;16.35;;;;;;;3.99;83.08;93009.25;5010765;28;20170;-63
2021/01/23 01:36:35;;;;;;;19.90;15.45;;;;;;;3.79;84.10;92999.44;5010644;28;20079;-63
2021/01/23 01:39:00;;;;;;;17.10;15.30;;;;;;;3.58;84.32;92986.94;5012459;28;20018;-63
2021/01/23 01:41:26;;;;;;;15.73;14.05;;;;;;;3.61;85.27;93009.19;5028209;28;20073;-64
2021/01/23 01:43:51;;;;;;;19.38;16.02;;;;;;;3.65;85.61;93005.63;5010745;28;20510;-64
2021/01/23 01:46:17;;;;;;;15.98;14.30;;;;;;;3.69;85.02;93010.28;5028123;28;20053;-64
2021/01/23 01:48:42;;;;;;;14.35;11.10;;;;;;;3.33;85.53;93017.44;5028120;28;20498;-63
2021/01/23 01:51:07;;;;;;;15.63;14.10;;;;;;;3.43;85.32;93008.47;5030085;28;20037;-63
2021/01/23 01:53:33;;;;;;;10.95;9.85;;;;;;;3.54;85.81;93056.22;5028113;28;20061;-63
2021/01/23 01:55:58;;;;;;;11.57;9.73;;;;;;;3.27;86.18;93031.00;5028145;28;20121;-64
2021/01/23 01:58:24;;;;;;;10.85;9.85;;;;;;;3.29;85.89;93057.78;5027996;28;20042;-64
2021/01/23 02:00:49;;;;;;;10.13;9.18;;;;;;;3.18;86.41;93043.41;5027943;28;20040;-65
2021/01/23 02:03:36;;;;;;;7.30;6.38;;;;;;;3.05;88.08;93102.84;5030010;28;20155;-63
2021/01/23 02:06:21;;;;;;;10.13;9.23;;;;;;;2.87;87.49;93102.06;5010969;28;20414;-63
2021/01/23 02:09:05;;;;;;;8.30;7.00;;;;;;;2.85;88.46;93133.06;5028151;28;20037;-62
2021/01/23 02:12:02;;;;;;;8.98;8.07;;;;;;;2.77;87.71;93145.09;5010367;28;20048;-64
2021/01/23 02:14:49;;;;;;;6.90;6.20;;;;;;;2.40;88.42;93122.69;5014447;28;20613;-64
2021/01/23 02:17:16;;;;;;;5.97;5.15;;;;;;;2.22;88.61;93123.69;5014050;28;20483;-62
2021/01/23 02:20:03;;;;;;;6.68;4.95;;;;;;;2.31;88.50;93145.50;5031828;28;20037;-62
2021/01/23 02:22:55;;;;;;;5.18;4.15;;;;;;;1.87;89.09;93139.22;5013936;28;20504;-63
2021/01/23 02:25:22;;;;;;;6.57;5.30;;;;;;;1.73;90.58;93149.75;5031925;28;20045;-62
2021/01/23 02:28:13;;;;;;;6.95;6.05;;;;;;;1.89;89.83;93136.28;5031566;28;20420;-62
2021/01/23 02:31:06;;;;;;;5.72;4.80;;;;;;;1.62;90.83;93156.28;5031829;28;20026;-62
2021/01/23 02:33:33;;;;;;;7.50;6.20;;;;;;;1.97;90.59;93185.41;5031606;28;20035;-64
2021/01/23 02:36:03;;;;;;;9.07;6.63;;;;;;;1.69;90.27;93169.78;5033826;28;20077;-62
2021/01/23 02:38:30;;;;;;;7.95;5.55;;;;;;;1.68;89.95;93177.91;5031458;28;20480;-62
2021/01/23 02:40:56;;;;;;;7.80;5.95;;;;;;;1.62;91.15;93200.06;5031587;28;20599;-64
2021/01/23 02:43:22;;;;;;;5.93;5.00;;;;;;;1.32;90.93;93162.97;5013641;28;20061;-62
2021/01/23 02:45:49;;;;;;;7.05;4.43;;;;;;;1.34;91.63;93205.38;5031344;28;20072;-63
2021/01/23 02:48:15;;;;;;;6.78;4.50;;;;;;;1.37;90.91;93196.13;5015280;28;20087;-64
2021/01/23 02:50:41;;;;;;;4.05;3.45;;;;;;;0.88;92.42;93167.00;5013360;28;20048;-63
2021/01/23 02:53:20;;;;;;;4.05;3.58;;;;;;;0.93;92.61;93200.94;5031164;28;20034;-63
2021/01/23 02:55:47;;;;;;;6.68;4.65;;;;;;;1.29;92.12;93245.53;5031196;28;20054;-63
2021/01/23 02:58:16;;;;;;;5.95;4.57;;;;;;;1.35;91.96;93240.97;5031056;28;20076;-61
2021/01/23 03:00:42;;;;;;;5.68;4.38;;;;;;;1.33;91.65;93237.06;5013355;28;20112;-63
2021/01/23 03:03:08;;;;;;;9.60;4.47;;;;;;;1.32;91.19;93259.88;5032855;28;20030;-63
2021/01/23 03:05:35;;;;;;;3.05;2.50;;;;;;;1.01;92.16;93267.53;5031168;28;20046;-61
2021/01/23 03:08:00;;;;;;;7.25;2.80;;;;;;;0.75;93.06;93231.34;5030681;28;20535;-60
2021/01/23 03:10:40;;;;;;;4.63;3.58;;;;;;;0.90;93.21;93240.75;5013187;28;20041;-62
2021/01/23 03:13:06;;;;;;;5.88;3.95;;;;;;;1.04;93.84;93280.81;5029873;28;20042;-63
2021/01/23 03:15:33;;;;;;;3.22;2.47;;;;;;;0.98;93.54;93291.69;5030355;28;20041;-63
2021/01/23 03:17:59;;;;;;;6.25;2.95;;;;;;;0.89;94.08;93304.66;5014596;28;20064;-61
2021/01/23 03:20:28;;;;;;;3.80;3.00;;;;;;;0.88;94.75;93313.56;5030735;28;20045;-62
2021/01/23 03:22:55;;;;;;;2.10;1.95;;;;;;;0.82;95.02;93304.25;5030494;28;20045;-62
2021/01/23 03:25:20;;;;;;;2.85;2.53;;;;;;;0.72;95.21;93314.91;5029703;28;20402;-62
2021/01/23 03:27:46;;;;;;;3.95;3.30;;;;;;;0.73;94.92;93319.06;5030315;28;20033;-61
2021/01/23 03:30:11;;;;;;;3.78;2.78;;;;;;;0.58;95.86;93333.16;5014948;28;20030;-61
2021/01/23 03:32:37;;;;;;;4.10;3.40;;;;;;;0.73;94.62;93332.16;5030457;28;20041;-62
2021/01/23 03:35:04;;;;;;;3.67;3.03;;;;;;;0.65;95.02;93358.94;5030440;28;20045;-60
2021/01/23 03:37:29;;;;;;;4.75;4.07;;;;;;;0.67;95.47;93349.78;5012394;28;20527;-59
2021/01/23 03:39:55;;;;;;;2.22;1.48;;;;;;;0.68;95.23;93361.00;5030394;28;20041;-64
2021/01/23 03:42:20;;;;;;;2.42;1.95;;;;;;;0.68;95.32;93379.31;5032142;28;20033;-62
2021/01/23 03:44:45;;;;;;;1.25;0.28;;;;;;;0.43;95.24;93367.38;5030372;28;20037;-61
2021/01/23 03:47:11;;;;;;;2.58;1.67;;;;;;;0.62;95.39;93377.84;5030065;28;20384;-62
2021/01/23 03:49:36;;;;;;;1.20;1.10;;;;;;;0.15;95.77;93314.94;5030276;28;20048;-62
2021/01/23 03:52:02;;;;;;;2.85;1.23;;;;;;;0.54;95.91;93371.41;5030022;28;20549;-61
2021/01/23 03:54:27;;;;;;;1.00;0.63;;;;;;;0.49;95.64;93364.41;5029976;28;20022;-61
2021/01/23 03:56:53;;;;;;;3.25;2.40;;;;;;;0.54;95.81;93357.56;5031907;28;20033;-62
2021/01/23 03:59:18;;;;;;;1.58;1.45;;;;;;;-0.12;95.70;93283.44;5030137;28;20042;-62
2021/01/23 04:01:43;;;;;;;0.60;0.60;;;;;;;0.61;95.23;93391.97;5029770;28;20106;-63
2021/01/23 04:04:09;;;;;;;0.47;0.40;;;;;;;0.32;95.63;93379.06;5029918;28;20041;-62
2021/01/23 04:06:34;;;;;;;1.27;1.15;;;;;;;0.45;95.39;93388.81;5029739;28;20029;-62
2021/01/23 04:08:59;;;;;;;1.83;1.25;;;;;;;0.57;95.08;93376.09;5013963;28;20119;-62
2021/01/23 04:11:25;;;;;;;1.70;1.60;;;;;;;0.55;94.90;93369.56;5029642;28;20038;-61
2021/01/23 04:13:50;;;;;;;1.20;1.08;;;;;;;0.64;94.22;93381.72;5029852;28;20072;-62
2021/01/23 04:16:15;;;;;;;0.57;0.57;;;;;;;0.44;94.90;93387.25;5029654;28;20044;-62
2021/01/23 04:18:41;;;;;;;3.50;2.35;;;;;;;0.63;95.06;93395.88;5029546;28;20030;-62
2021/01/23 04:21:06;;;;;;;1.33;1.17;;;;;;;0.56;94.55;93389.44;5031736;28;20025;-62
2021/01/23 04:23:33;;;;;;;0.80;0.77;;;;;;;0.47;95.51;93397.94;5011938;28;20322;-61
2021/01/23 04:25:59;;;;;;;0.40;0.40;;;;;;;-0.13;95.67;93305.41;5029503;28;20068;-61
2021/01/23 04:28:24;;;;;;;0.43;0.43;;;;;;;0.35;95.59;93397.56;5029397;28;20434;-61
2021/01/23 04:30:49;;;;;;;0.75;0.75;;;;;;;0.52;94.98;93425.88;5029658;28;20037;-63
2021/01/23 04:33:15;;;;;;;0.75;0.75;;;;;;;0.29;95.29;93400.53;5013553;28;20120;-62
2021/01/23 04:35:40;;;;;;;1.63;1.52;;;;;;;0.55;95.21;93430.50;5010814;28;20046;-62
2021/01/23 04:38:05;;;;;;;1.67;1.58;;;;;;;0.47;95.39;93436.41;5029045;28;20091;-62
2021/01/23 04:40:31;;;;;;;0.40;0.40;;;;;;;0.41;95.93;93461.84;5029352;28;20087;-62
2021/01/23 04:42:56;;;;;;;1.67;1.58;;;;;;;0.43;94.82;93440.63;5029117;28;20141;-62
2021/01/23 04:45:22;;;;;;;0.63;0.47;;;;;;;0.03;95.84;93427.00;5031133;28;20035;-62
2021/01/23 04:47:47;;;;;;;0.73;0.60;;;;;;;0.27;95.63;93457.56;5011314;28;20555;-61
2021/01/23 04:50:13;;;;;;;1.17;1.08;;;;;;;0.36;95.30;93474.97;5029199;28;20053;-62
2021/01/23 04:52:41;;;;;;;1.23;1.13;;;;;;;0.42;95.29;93486.94;5028999;28;20042;-62
2021/01/23 04:55:08;;;;;;;0.80;0.77;;;;;;;0.42;95.42;93499.25;5025838;28;20042;-62
2021/01/23 04:57:34;;;;;;;0.98;0.95;;;;;;;0.51;95.35;93514.03;5029244;28;20134;-61
2021/01/23 04:59:59;;;;;;;0.17;0.17;;;;;;;0.27;95.47;93520.34;5031286;28;20112;-62
2021/01/23 05:02:25;;;;;;;0.45;0.30;;;;;;;0.32;96.06;93526.28;5010545;28;20406;-61
2021/01/23 05:04:59;;;;;;;1.17;0.80;;;;;;;-0.04;96.62;93477.00;5029083;28;20041;-61
2021/01/23 05:07:32;;;;;;;3.33;1.08;;;;;;;0.33;96.84;93529.69;5028849;28;20049;-61
2021/01/23 05:10:11;;;;;;;1.08;0.98;;;;;;;0.35;96.83;93506.63;5011237;28;20143;-61
2021/01/23 05:12:39;;;;;;;0.52;0.52;;;;;;;0.31;96.73;93505.63;5028306;28;20036;-62
2021/01/23 05:15:08;;;;;;;3.95;1.88;;;;;;;0.38;96.78;93519.16;5030756;28;20034;-63
2021/01/23 05:17:54;;;;;;;1.55;1.45;;;;;;;0.42;96.76;93523.56;5028633;28;20087;-63
2021/01/23 05:20:47;;;;;;;1.38;1.27;;;;;;;0.38;96.79;93529.63;5028498;28;20506;-62
2021/01/23 05:23:14;;;;;;;1.00;0.90;;;;;;;0.43;96.45;93534.78;5028580;28;20042;-62
2021/01/23 05:25:41;;;;;;;0.43;0.43;;;;;;;0.11;97.30;93517.13;5028522;28;20042;-63
2021/01/23 05:28:09;;;;;;;1.48;1.00;;;;;;;0.19;97.21;93525.09;5028394;28;20491;-62
2021/01/23 05:30:52;;;;;;;0.28;0.28;;;;;;;0.25;97.25;93542.28;5028686;28;20065;-62
2021/01/23 05:33:21;;;;;;;0.68;0.63;;;;;;;0.23;97.00;93533.97;5030246;28;20057;-62
2021/01/23 05:36:08;;;;;;;0.40;0.40;;;;;;;0.29;97.15;93539.91;5010709;28;20038;-61
2021/01/23 05:38:46;;;;;;;0.60;0.60;;;;;;;0.25;97.03;93531.84;5028273;28;20060;-62
2021/01/23 05:41:14;;;;;;;1.63;1.10;;;;;;;0.35;97.02;93546.63;5028316;28;20038;-62
2021/01/23 05:43:50;;;;;;;1.23;1.10;;;;;;;0.05;97.26;93497.28;5027569;28;20095;-62
2021/01/23 05:46:34;;;;;;;0.65;0.65;;;;;;;0.25;97.24;93534.44;5028583;28;20121;-62
2021/01/23 05:48:59;;;;;;;1.58;1.48;;;;;;;0.22;96.68;93542.09;5032258;28;20049;-62
2021/01/23 05:51:25;;;;;;;1.42;1.33;;;;;;;0.39;95.99;93568.56;5031928;28;20030;-63
2021/01/23 05:53:51;;;;;;;0.68;0.60;;;;;;;0.33;96.26;93595.84;5034460;28;20028;-62
2021/01/23 05:56:16;;;;;;;1.95;1.85;;;;;;;0.48;96.22;93569.50;5032206;28;20041;-63
2021/01/23 05:58:44;;;;;;;1.98;1.70;;;;;;;0.50;96.22;93600.63;5014406;28;20044;-63
2021/01/23 06:01:14;;;;;;;1.13;1.02;;;;;;;0.40;96.10;93596.28;5014392;28;20034;-62
2021/01/23 06:03:46;;;;;;;2.78;2.30;;;;;;;0.45;95.59;93590.22;5032277;28;20022;-63
2021/01/23 06:06:11;;;;;;;3.20;2.90;;;;;;;0.78;94.82;93596.41;5016417;28;20021;-63
2021/01/23 06:08:45;;;;;;;0.85;0.85;;;;;;;0.48;95.06;93608.75;5031895;28;20111;-62
2021/01/23 06:11:19;;;;;;;2.00;1.80;;;;;;;0.56;95.34;93619.66;5014486;28;20033;-62
2021/01/23 06:13:51;;;;;;;3.58;3.20;;;;;;;0.71;94.50;93622.09;5014146;28;20132;-62
2021/01/23 06:16:32;;;;;;;2.92;2.72;;;;;;;0.53;95.15;93634.09;5032216;28;20045;-63
2021/01/23 06:18:58;;;;;;;2.47;2.22;;;;;;;0.52;96.21;93630.69;5014074;28;20037;-63
2021/01/23 06:21:43;;;;;;;2.05;1.88;;;;;;;0.49;95.87;93633.06;5033395;28;20025;-63
2021/01/23 06:24:12;;;;;;;3.47;3.15;;;;;;;0.58;95.36;93643.72;5014561;28;20037;-63
2021/01/23 06:26:53;;;;;;;3.83;2.83;;;;;;;0.66;94.96;93637.88;5031639;28;20172;-65
2021/01/23 06:29:34;;;;;;;4.57;3.00;;;;;;;0.51;95.13;93629.13;5031765;28;20040;-64
2021/01/23 06:32:15;;;;;;;3.35;2.80;;;;;;;0.66;94.94;93648.34;5031539;28;20060;-62
2021/01/23 06:34:52;;;;;;;2.55;1.83;;;;;;;0.45;94.74;93635.47;5031486;28;20414;-62
2021/01/23 06:37:24;;;;;;;4.30;3.42;;;;;;;0.54;94.64;93653.97;5013612;28;20051;-63
2021/01/23 06:39:55;;;;;;;4.70;3.92;;;;;;;1.12;93.11;93664.28;5031435;28;20122;-64
2021/01/23 06:42:21;;;;;;;2.50;1.77;;;;;;;0.67;94.10;93660.38;5015642;28;20438;-63
2021/01/23 06:44:46;;;;;;;2.28;2.03;;;;;;;0.70;94.12;93665.81;5031546;28;20076;-63
2021/01/23 06:47:11;;;;;;;3.38;3.03;;;;;;;0.91;93.61;93683.91;5031280;28;20041;-62
2021/01/23 06:49:41;;;;;;;1.80;1.52;;;;;;;0.84;93.28;93670.41;5031306;28;20120;-63
2021/01/23 06:52:07;;;;;;;3.13;2.75;;;;;;;0.76;93.37;93688.25;5013549;28;20037;-62
2021/01/23 06:54:33;;;;;;;4.03;3.55;;;;;;;0.97;92.87;93694.09;5031207;28;20047;-62
2021/01/23 06:56:59;;;;;;;4.03;3.05;;;;;;;0.95;93.08;93690.16;5015253;28;20118;-62
2021/01/23 06:59:30;;;;;;;4.15;3.67;;;;;;;0.88;93.52;93689.72;5029934;28;20779;-62
2021/01/23 07:01:57;;;;;;;3.80;3.40;;;;;;;0.86;93.48;93691.84;5030983;28;20076;-62
2021/01/23 07:04:23;;;;;;;4.13;3.72;;;;;;;0.83;93.55;93677.47;5013437;28;20515;-63
2021/01/23 07:06:49;;;;;;;3.45;2.83;;;;;;;0.75;93.55;93699.78;5030817;28;20373;-65
2021/01/23 07:09:14;;;;;;;3.72;3.42;;;;;;;0.99;92.87;93705.03;5015343;28;20082;-63
2021/01/23 07:11:39;;;;;;;4.03;3.63;;;;;;;0.95;92.36;93703.25;5030857;28;20391;-62
2021/01/23 07:14:06;;;;;;;4.80;2.58;;;;;;;0.87;92.92;93715.13;5031086;28;20670;-62
2021/01/23 07:16:39;;;;;;;6.10;2.65;;;;;;;0.90;92.71;93725.03;5030903;28;20040;-62
2021/01/23 07:19:07;;;;;;;1.30;1.23;;;;;;;0.86;93.09;93724.03;5013231;28;20128;-64
2021/01/23 07:21:39;;;;;;;3.45;2.97;;;;;;;0.90;92.91;93721.63;5030574;28;20040;-63
2021/01/23 07:24:09;;;;;;;4.05;2.53;;;;;;;0.70;92.89;93696.44;5032792;28;20044;-65
2021/01/23 07:26:35;;;;;;;3.80;2.55;;;;;;;0.47;93.35;93700.59;5012856;28;20513;-64
2021/01/23 07:29:00;;;;;;;4.45;3.05;;;;;;;0.74;93.67;93726.25;5030721;28;20076;-64
2021/01/23 07:31:28;;;;;;;2.75;1.95;;;;;;;0.34;93.66;93675.06;5030749;28;20037;-64
2021/01/23 07:33:55;;;;;;;3.97;3.10;;;;;;;0.61;93.63;93701.50;5031629;28;20041;-64
2021/01/23 07:36:33;;;;;;;5.50;3.83;;;;;;;0.70;93.14;93712.94;5015671;28;20383;-65
2021/01/23 07:39:00;;;;;;;3.58;2.38;;;;;;;0.61;94.08;93739.97;5031888;28;20068;-64
2021/01/23 07:41:30;;;;;;;4.05;3.65;;;;;;;0.81;93.91;93739.00;5031341;28;20490;-64
2021/01/23 07:43:57;;;;;;;4.10;3.53;;;;;;;0.85;92.86;93716.44;5031405;28;20513;-65
2021/01/23 07:46:22;;;;;;;4.82;4.18;;;;;;;1.00;92.40;93727.53;5013640;28;20518;-65
2021/01/23 07:48:47;;;;;;;5.60;3.85;;;;;;;0.96;92.23;93731.78;5031252;28;20033;-65
2021/01/23 07:51:28;;;;;;;4.55;4.00;;;;;;;1.27;92.23;93753.16;5032651;28;20049;-64
2021/01/23 07:54:10;;;;;;;5.20;4.10;;;;;;;1.09;91.81;93721.72;5031649;28;20037;-64
2021/01/23 07:56:36;;;;;;;4.57;4.00;;;;;;;0.96;92.80;93751.94;5013342;28;20442;-64
2021/01/23 07:59:02;;;;;;;4.82;3.97;;;;;;;1.07;92.35;93747.38;5030803;28;20060;-64
2021/01/23 08:01:27;;;;;;;5.15;4.43;;;;;;;1.06;92.15;93711.78;5013167;28;20496;-63
2021/01/23 08:03:53;;;;;;;5.13;4.50;;;;;;;1.16;91.90;93724.75;5013451;28;20077;-63
2021/01/23 08:06:23;;;;;;;4.20;3.80;;;;;;;1.21;91.78;93754.28;5032670;28;20026;-64
2021/01/23 08:08:49;;;;;;;4.13;3.65;;;;;;;1.20;91.81;93739.63;5013298;28;20042;-65
2021/01/23 08:11:35;;;;;;;4.07;3.67;;;;;;;1.16;92.53;93769.28;5012876;28;20041;-65
2021/01/23 08:14:12;;;;;;;5.10;4.60;;;;;;;1.34;91.84;93758.09;5031022;28;20056;-68
2021/01/23 08:16:51;;;;;;;9.85;4.80;;;;;;;1.17;91.35;93765.59;5030833;28;20103;-65
2021/01/23 08:19:16;;;;;;;8.90;4.97;;;;;;;1.13;91.64;93748.91;5013047;28;20439;-64
2021/01/23 08:21:42;;;;;;;5.97;5.30;;;;;;;1.33;91.45;93743.41;5012450;28;20026;-68
2021/01/23 08:24:27;;;;;;;7.03;5.38;;;;;;;1.42;90.62;93757.47;5032597;28;20022;-72
2021/01/23 08:26:52;;;;;;;5.93;5.32;;;;;;;1.47;90.64;93754.00;5012903;28;20088;-73
2021/01/23 08:29:19;;;;;;;6.07;5.47;;;;;;;1.64;90.46;93767.44;5012857;28;20061;-66
2021/01/23 08:31:59;;;;;;;5.90;5.30;;;;;;;1.86;89.73;93766.88;5030494;28;20148;-69
2021/01/23 08:34:24;;;;;;;5.88;4.88;;;;;;;1.43;89.86;93737.28;5012454;28;20036;-64
2021/01/23 08:36:49;;;;;;;5.82;5.25;;;;;;;1.68;89.97;93754.53;5030418;28;20457;-64
2021/01/23 08:39:15;;;;;;;4.63;4.22;;;;;;;1.55;89.97;93764.66;5032226;28;20502;-62
2021/01/23 08:41:40;;;;;;;4.20;3.80;;;;;;;1.41;90.36;93762.97;5030106;28;20052;-63
2021/01/23 08:44:05;;;;;;;5.68;4.57;;;;;;;1.19;91.19;93764.28;5030293;28;20048;-65
2021/01/23 08:46:31;;;;;;;6.05;4.50;;;;;;;1.82;89.67;93731.81;5012345;28;20052;-64
2021/01/23 08:48:57;;;;;;;5.32;4.15;;;;;;;1.43;89.89;93726.78;5030039;28;20155;-64
2021/01/23 08:51:23;;;;;;;5.30;4.80;;;;;;;1.81;89.21;93738.13;5030698;28;20029;-63
2021/01/23 08:53:48;;;;;;;4.03;3.63;;;;;;;1.54;89.18;93739.50;5030953;28;20056;-64
2021/01/23 08:56:15;;;;;;;5.07;4.57;;;;;;;1.76;88.84;93730.31;5030084;28;20064;-63
2021/01/23 08:58:41;;;;;;;6.35;5.22;;;;;;;1.88;88.83;93751.63;5029895;28;20041;-64
2021/01/23 09:01:06;;;;;;;6.03;4.20;;;;;;;1.97;88.53;93736.84;5029945;28;20049;-65
2021/01/23 09:03:31;;;;;;;3.72;2.92;;;;;;;1.49;88.26;93742.19;5012143;28;20022;-65
2021/01/23 09:05:57;;;;;;;3.80;3.25;;;;;;;1.54;88.86;93723.78;5031497;28;20036;-66
2021/01/23 09:08:22;;;;;;;4.80;4.10;;;;;;;1.97;87.91;93736.84;5029573;28;20463;-65
2021/01/23 09:10:47;;;;;;;5.50;4.15;;;;;;;2.19;87.59;93735.47;5029895;28;20043;-64
2021/01/23 09:13:13;;;;;;;4.43;4.03;;;;;;;1.89;86.93;93710.47;5029607;28;20073;-65
2021/01/23 09:15:38;;;;;;;3.70;3.38;;;;;;;1.85;86.67;93718.13;5029831;28;20057;-68
2021/01/23 09:18:04;;;;;;;4.10;3.65;;;;;;;1.98;85.75;93712.16;5031503;28;20478;-67
2021/01/23 09:20:30;;;;;;;4.22;3.83;;;;;;;2.29;86.04;93732.69;5029068;28;20068;-65
2021/01/23 09:22:55;;;;;;;4.15;3.78;;;;;;;2.32;85.17;93719.78;5028898;28;20061;-65
2021/01/23 09:25:21;;;;;;;4.00;3.65;;;;;;;2.62;85.13;93719.59;5029337;28;20041;-64
2021/01/23 09:27:46;;;;;;;4.13;3.72;;;;;;;2.70;84.63;93732.03;5029371;28;20041;-72
2021/01/23 09:30:14;;;;;;;3.83;3.53;;;;;;;2.72;84.09;93722.03;5031603;28;20044;-69
2021/01/23 09:32:40;;;;;;;3.35;2.80;;;;;;;2.77;83.33;93729.84;5029383;28;20041;-66
2021/01/23 09:35:05;;;;;;;3.20;3.00;;;;;;;2.99;83.81;93735.22;5029231;28;20103;-66
2021/01/23 09:37:31;;;;;;;3.10;2.90;;;;;;;3.29;84.06;93702.34;5029116;28;20046;-68
2021/01/23 09:39:57;;;;;;;2.90;2.70;;;;;;;3.09;81.28;93729.75;5011448;28;20055;-69
2021/01/23 09:42:22;;;;;;;2.85;2.65;;;;;;;3.50;81.49;93686.94;5031278;28;20489;-65
2021/01/23 09:44:47;;;;;;;2.58;2.38;;;;;;;3.54;80.16;93719.44;5029358;28;20438;-67
2021/01/23 09:47:14;;;;;;;2.70;2.50;;;;;;;4.08;80.85;93709.09;5028442;28;20057;-68
2021/01/23 09:49:40;;;;;;;2.70;2.50;;;;;;;3.75;80.68;93711.91;5028862;28;20095;-62
2021/01/23 09:52:05;;;;;;;2.90;2.70;;;;;;;3.77;80.89;93737.91;5028907;28;20073;-67
2021/01/23 09:54:30;;;;;;;3.28;2.97;;;;;;;2.77;80.44;93633.47;5029450;28;20030;-63
2021/01/23 09:56:55;;;;;;;3.30;3.00;;;;;;;3.32;81.57;93721.97;5030933;28;20391;-68
2021/01/23 09:59:21;;;;;;;3.05;2.85;;;;;;;3.17;81.68;93724.91;5028437;28;20483;-66
2021/01/23 10:01:46;;;;;;;3.70;3.40;;;;;;;3.88;82.26;93702.41;5029141;28;20120;-65
2021/01/23 10:04:12;;;;;;;3.50;3.20;;;;;;;3.78;81.87;93724.44;5011465;28;20479;-67
2021/01/23 10:06:37;;;;;;;3.80;3.50;;;;;;;4.23;81.20;93734.28;5029187;28;20053;-64
2021/01/23 10:09:02;;;;;;;3.80;3.50;;;;;;;4.68;81.56;93721.91;5030995;28;20553;-66
2021/01/23 10:11:28;;;;;;;4.05;3.75;;;;;;;4.93;81.61;93720.50;5029135;28;20060;-68
2021/01/23 10:13:53;;;;;;;4.18;3.78;;;;;;;5.00;81.25;93710.28;5029374;28;20038;-63
2021/01/23 10:16:18;;;;;;;3.80;3.50;;;;;;;5.00;80.66;93723.47;5029181;28;20120;-67
2021/01/23 10:18:44;;;;;;;4.28;3.97;;;;;;;4.37;79.12;93692.91;5028651;28;20046;-62
2021/01/23 10:21:09;;;;;;;4.68;4.28;;;;;;;4.70;80.06;93717.09;5030406;28;20026;-61
2021/01/23 10:23:34;;;;;;;4.90;4.50;;;;;;;4.57;80.83;93692.41;5029228;28;20061;-61
2021/01/23 10:26:00;;;;;;;5.05;4.63;;;;;;;4.00;78.81;93702.69;5011382;28;20046;-62
2021/01/23 10:28:26;;;;;;;5.55;4.55;;;;;;;3.53;81.22;93717.09;5011241;28;20034;-62
2021/01/23 10:30:51;;;;;;;4.97;4.53;;;;;;;3.65;81.41;93712.13;5029209;28;20524;-62
2021/01/23 10:33:17;;;;;;;5.65;5.03;;;;;;;3.79;82.04;93694.47;5031966;28;20021;-61
2021/01/23 10:35:43;;;;;;;4.80;4.40;;;;;;;4.20;82.49;93701.47;5032648;28;20041;-63
2021/01/23 10:38:09;;;;;;;5.07;4.68;;;;;;;4.17;82.07;93679.13;5032117;28;20038;-61
2021/01/23 10:40:34;;;;;;;5.65;4.93;;;;;;;4.41;82.85;93704.38;5014432;28;20045;-63
2021/01/23 10:42:59;;;;;;;5.18;4.78;;;;;;;4.23;82.14;93671.13;5032351;28;20188;-61
2021/01/23 10:45:24;;;;;;;5.10;4.60;;;;;;;4.44;82.54;93686.13;5014749;28;20554;-62
2021/01/23 10:47:50;;;;;;;4.63;4.32;;;;;;;4.41;81.85;93670.16;5034005;28;20108;-62
2021/01/23 10:50:15;;;;;;;5.00;4.53;;;;;;;4.38;81.71;93673.38;5032042;28;20152;-63
2021/01/23 10:52:40;;;;;;;4.90;4.50;;;;;;;4.33;80.28;93681.41;5032099;28;20491;-62
2021/01/23 10:55:07;;;;;;;4.18;3.88;;;;;;;4.35;81.09;93677.41;5032355;28;20034;-69
2021/01/23 10:57:32;;;;;;;5.32;4.82;;;;;;;4.51;80.55;93690.22;5014855;28;20095;-67
2021/01/23 10:59:57;;;;;;;4.75;4.32;;;;;;;4.61;80.84;93651.22;5034458;28;20678;-62
2021/01/23 11:02:22;;;;;;;5.03;4.47;;;;;;;4.77;81.31;93650.84;5031909;28;20495;-63
2021/01/23 11:04:48;;;;;;;5.10;4.70;;;;;;;5.09;80.93;93678.69;5032276;28;20029;-63
2021/01/23 11:07:13;;;;;;;4.60;4.20;;;;;;;5.14;79.94;93666.16;5031848;28;20152;-69
2021/01/23 11:09:39;;;;;;;4.47;4.07;;;;;;;4.82;79.29;93648.84;5031812;28;20071;-68
2021/01/23 11:12:05;;;;;;;4.53;4.18;;;;;;;4.79;80.05;93638.13;5033794;28;20509;-67
2021/01/23 11:14:31;;;;;;;4.50;4.10;;;;;;;5.02;80.47;93637.00;5031814;28;20038;-66
2021/01/23 11:16:56;;;;;;;4.38;3.97;;;;;;;5.65;80.25;93671.88;5013939;28;20506;-66
2021/01/23 11:19:22;;;;;;;4.18;3.88;;;;;;;5.70;80.41;93632.94;5014191;28;20046;-65
2021/01/23 11:21:47;;;;;;;4.72;4.32;;;;;;;5.34;77.02;93643.75;5013565;28;20549;-65
2021/01/23 11:24:13;;;;;;;4.05;3.75;;;;;;;4.26;77.58;93547.59;5033738;28;20660;-65
2021/01/23 11:26:38;;;;;;;4.13;3.75;;;;;;;4.90;78.08;93626.22;5013950;28;20049;-65
2021/01/23 11:29:03;;;;;;;5.18;4.78;;;;;;;4.75;77.38;93663.50;5031590;28;20029;-66
2021/01/23 11:31:29;;;;;;;4.18;3.78;;;;;;;5.08;78.16;93650.81;5031472;28;20048;-66
2021/01/23 11:33:54;;;;;;;4.38;4.00;;;;;;;5.10;78.34;93635.44;5031107;28;20054;-70
2021/01/23 11:36:20;;;;;;;4.00;3.70;;;;;;;5.66;79.37;93647.03;5033410;28;20033;-64
2021/01/23 11:38:46;;;;;;;4.00;3.70;;;;;;;6.03;79.36;93645.69;5028195;28;20053;-64
2021/01/23 11:41:12;;;;;;;3.50;3.20;;;;;;;6.32;78.78;93641.63;5027964;28;20096;-65
2021/01/23 11:43:37;;;;;;;3.45;3.15;;;;;;;6.07;78.23;93567.44;5031223;28;20399;-65